Edinboro, Pennsylvania
Current Conditions -  °F | °C
As of 5:51 PM on Tuesday 21 Oct 2014 (Local Time) from KERI Reporting Station
Light Rain Light Rain  
Wind Chill: 50°   Ceiling: 500
Heat Index: 50°   Visibility: 2mi
Dew Point: 46°   Wind: 15mph
Humidity: 86%   Direction: 20°NNE
Pressure: 29.96"   Gusts: 23mph
Location:  41.88°N, 80.13°W
Report Text: KERI 212151Z 02013G20KT 2SM -RA BR BKN005 OVC012 10/08 A2996 RMK AO2 RAB12 SLP148 P0006 T01000078
Loading
Personal Weather Stations






























Interactive Weather Map
Tropical Storm Tracking
New forecast layout! Learn more

10-Day Weather Forecast

Advertisements
Track Severe Weather on mobile